sensor_id;sensor_type;location;lat;lon;timestamp;P1;durP1;ratioP1;P2;durP2;ratioP2
65581;SDS011;52231;40.090;18.348;2022-12-07T00:01:38;18.60;;;8.10;;
65581;SDS011;52231;40.090;18.348;2022-12-07T00:04:10;22.02;;;8.27;;
65581;SDS011;52231;40.090;18.348;2022-12-07T00:06:43;23.63;;;8.27;;
65581;SDS011;52231;40.090;18.348;2022-12-07T00:09:13;26.40;;;8.70;;
65581;SDS011;52231;40.090;18.348;2022-12-07T00:11:43;22.23;;;8.25;;
65581;SDS011;52231;40.090;18.348;2022-12-07T00:14:15;26.02;;;7.95;;
65581;SDS011;52231;40.090;18.348;2022-12-07T00:16:44;24.40;;;7.72;;
65581;SDS011;52231;40.090;18.348;2022-12-07T00:19:13;25.52;;;8.60;;
65581;SDS011;52231;40.090;18.348;2022-12-07T00:24:10;27.08;;;7.90;;
65581;SDS011;52231;40.090;18.348;2022-12-07T00:26:39;20.55;;;8.50;;
65581;SDS011;52231;40.090;18.348;2022-12-07T00:29:17;22.58;;;8.70;;
65581;SDS011;52231;40.090;18.348;2022-12-07T00:31:46;27.05;;;11.82;;
65581;SDS011;52231;40.090;18.348;2022-12-07T00:34:16;27.92;;;11.02;;
65581;SDS011;52231;40.090;18.348;2022-12-07T00:36:46;21.33;;;10.20;;
65581;SDS011;52231;40.090;18.348;2022-12-07T00:39:14;23.33;;;9.15;;
65581;SDS011;52231;40.090;18.348;2022-12-07T00:41:42;21.27;;;8.60;;
65581;SDS011;52231;40.090;18.348;2022-12-07T00:44:10;18.08;;;7.40;;
65581;SDS011;52231;40.090;18.348;2022-12-07T00:46:39;18.95;;;7.28;;
65581;SDS011;52231;40.090;18.348;2022-12-07T00:49:07;20.02;;;8.45;;
65581;SDS011;52231;40.090;18.348;2022-12-07T00:51:38;22.13;;;8.93;;
65581;SDS011;52231;40.090;18.348;2022-12-07T00:54:06;18.52;;;7.88;;
65581;SDS011;52231;40.090;18.348;2022-12-07T00:56:35;17.55;;;7.80;;
65581;SDS011;52231;40.090;18.348;2022-12-07T00:59:03;18.88;;;7.13;;
65581;SDS011;52231;40.090;18.348;2022-12-07T01:01:32;21.20;;;7.57;;
65581;SDS011;52231;40.090;18.348;2022-12-07T01:04:03;23.35;;;7.82;;
65581;SDS011;52231;40.090;18.348;2022-12-07T01:06:32;20.48;;;7.80;;
65581;SDS011;52231;40.090;18.348;2022-12-07T01:09:00;22.67;;;7.15;;
65581;SDS011;52231;40.090;18.348;2022-12-07T01:11:29;19.02;;;8.07;;
65581;SDS011;52231;40.090;18.348;2022-12-07T01:16:29;22.83;;;8.90;;
65581;SDS011;52231;40.090;18.348;2022-12-07T01:18:59;17.55;;;7.15;;
65581;SDS011;52231;40.090;18.348;2022-12-07T01:21:31;17.95;;;7.53;;
65581;SDS011;52231;40.090;18.348;2022-12-07T01:24:06;14.63;;;5.85;;
65581;SDS011;52231;40.090;18.348;2022-12-07T01:26:36;13.25;;;5.90;;
65581;SDS011;52231;40.090;18.348;2022-12-07T01:31:33;14.70;;;6.57;;
65581;SDS011;52231;40.090;18.348;2022-12-07T01:34:01;16.65;;;7.32;;
65581;SDS011;52231;40.090;18.348;2022-12-07T01:36:31;18.05;;;7.68;;
65581;SDS011;52231;40.090;18.348;2022-12-07T01:39:03;18.67;;;8.38;;
65581;SDS011;52231;40.090;18.348;2022-12-07T01:41:35;14.95;;;7.38;;
65581;SDS011;52231;40.090;18.348;2022-12-07T01:44:15;16.85;;;7.82;;
65581;SDS011;52231;40.090;18.348;2022-12-07T01:46:44;18.80;;;8.23;;
65581;SDS011;52231;40.090;18.348;2022-12-07T01:49:18;21.08;;;8.70;;
65581;SDS011;52231;40.090;18.348;2022-12-07T01:51:49;17.70;;;7.68;;
65581;SDS011;52231;40.090;18.348;2022-12-07T01:54:20;16.65;;;8.57;;
65581;SDS011;52231;40.090;18.348;2022-12-07T01:59:19;12.32;;;7.00;;
65581;SDS011;52231;40.090;18.348;2022-12-07T02:01:50;12.95;;;6.20;;
65581;SDS011;52231;40.090;18.348;2022-12-07T02:04:19;13.95;;;6.90;;
65581;SDS011;52231;40.090;18.348;2022-12-07T02:06:48;12.95;;;7.63;;
65581;SDS011;52231;40.090;18.348;2022-12-07T02:09:18;16.88;;;7.55;;
65581;SDS011;52231;40.090;18.348;2022-12-07T02:11:46;15.70;;;7.57;;
65581;SDS011;52231;40.090;18.348;2022-12-07T02:14:14;20.42;;;7.90;;
65581;SDS011;52231;40.090;18.348;2022-12-07T02:16:51;19.73;;;8.82;;
65581;SDS011;52231;40.090;18.348;2022-12-07T02:27:47;17.60;;;6.38;;
65581;SDS011;52231;40.090;18.348;2022-12-07T02:30:39;16.27;;;7.22;;
65581;SDS011;52231;40.090;18.348;2022-12-07T02:35:57;17.00;;;5.80;;
65581;SDS011;52231;40.090;18.348;2022-12-07T02:39:02;18.45;;;5.63;;
65581;SDS011;52231;40.090;18.348;2022-12-07T02:41:41;14.65;;;5.75;;
65581;SDS011;52231;40.090;18.348;2022-12-07T02:44:17;14.85;;;5.40;;
65581;SDS011;52231;40.090;18.348;2022-12-07T02:46:51;13.88;;;5.03;;
65581;SDS011;52231;40.090;18.348;2022-12-07T02:49:22;11.02;;;4.72;;
65581;SDS011;52231;40.090;18.348;2022-12-07T02:51:53;12.30;;;5.85;;
65581;SDS011;52231;40.090;18.348;2022-12-07T02:54:21;13.10;;;5.70;;
65581;SDS011;52231;40.090;18.348;2022-12-07T02:56:52;12.38;;;5.47;;
65581;SDS011;52231;40.090;18.348;2022-12-07T02:59:58;13.60;;;5.95;;
65581;SDS011;52231;40.090;18.348;2022-12-07T03:08:35;15.52;;;5.53;;
65581;SDS011;52231;40.090;18.348;2022-12-07T03:11:06;12.60;;;5.63;;
65581;SDS011;52231;40.090;18.348;2022-12-07T03:13:47;11.30;;;5.32;;
65581;SDS011;52231;40.090;18.348;2022-12-07T03:16:35;12.90;;;5.70;;
65581;SDS011;52231;40.090;18.348;2022-12-07T03:19:17;12.15;;;5.55;;
65581;SDS011;52231;40.090;18.348;2022-12-07T03:21:49;17.02;;;6.00;;
65581;SDS011;52231;40.090;18.348;2022-12-07T03:24:33;11.35;;;5.65;;
65581;SDS011;52231;40.090;18.348;2022-12-07T03:27:08;13.30;;;6.15;;
65581;SDS011;52231;40.090;18.348;2022-12-07T03:29:43;14.13;;;5.43;;
65581;SDS011;52231;40.090;18.348;2022-12-07T03:37:46;17.27;;;5.88;;
65581;SDS011;52231;40.090;18.348;2022-12-07T03:40:17;13.77;;;5.93;;
65581;SDS011;52231;40.090;18.348;2022-12-07T03:42:53;14.27;;;5.38;;
65581;SDS011;52231;40.090;18.348;2022-12-07T03:45:23;28.10;;;10.00;;
65581;SDS011;52231;40.090;18.348;2022-12-07T03:48:24;19.20;;;7.13;;
65581;SDS011;52231;40.090;18.348;2022-12-07T03:51:06;13.73;;;6.57;;
65581;SDS011;52231;40.090;18.348;2022-12-07T03:54:17;11.85;;;6.63;;
65581;SDS011;52231;40.090;18.348;2022-12-07T03:56:55;16.90;;;6.35;;
65581;SDS011;52231;40.090;18.348;2022-12-07T03:59:24;15.88;;;6.20;;
65581;SDS011;52231;40.090;18.348;2022-12-07T04:01:54;14.95;;;5.95;;
65581;SDS011;52231;40.090;18.348;2022-12-07T04:04:24;15.45;;;5.30;;
65581;SDS011;52231;40.090;18.348;2022-12-07T04:06:53;12.25;;;5.82;;
65581;SDS011;52231;40.090;18.348;2022-12-07T04:09:21;12.50;;;6.60;;
65581;SDS011;52231;40.090;18.348;2022-12-07T04:11:49;15.40;;;7.05;;
65581;SDS011;52231;40.090;18.348;2022-12-07T04:14:17;15.40;;;5.88;;
65581;SDS011;52231;40.090;18.348;2022-12-07T04:16:49;18.35;;;6.68;;
65581;SDS011;52231;40.090;18.348;2022-12-07T04:19:20;17.02;;;7.15;;
65581;SDS011;52231;40.090;18.348;2022-12-07T04:21:51;16.02;;;6.60;;
65581;SDS011;52231;40.090;18.348;2022-12-07T04:24:20;15.38;;;7.38;;
65581;SDS011;52231;40.090;18.348;2022-12-07T04:26:48;16.77;;;6.68;;
65581;SDS011;52231;40.090;18.348;2022-12-07T04:29:17;12.40;;;6.18;;
65581;SDS011;52231;40.090;18.348;2022-12-07T04:31:46;16.65;;;6.68;;
65581;SDS011;52231;40.090;18.348;2022-12-07T04:34:15;13.57;;;6.40;;
65581;SDS011;52231;40.090;18.348;2022-12-07T04:36:44;13.80;;;6.88;;
65581;SDS011;52231;40.090;18.348;2022-12-07T04:39:17;13.57;;;6.05;;
65581;SDS011;52231;40.090;18.348;2022-12-07T04:41:48;17.73;;;6.38;;
65581;SDS011;52231;40.090;18.348;2022-12-07T04:46:45;15.43;;;5.60;;
65581;SDS011;52231;40.090;18.348;2022-12-07T04:49:31;16.45;;;6.28;;
65581;SDS011;52231;40.090;18.348;2022-12-07T04:52:18;16.45;;;6.22;;
65581;SDS011;52231;40.090;18.348;2022-12-07T04:54:46;22.73;;;7.45;;
65581;SDS011;52231;40.090;18.348;2022-12-07T04:57:14;15.48;;;4.82;;
65581;SDS011;52231;40.090;18.348;2022-12-07T04:59:42;17.25;;;6.45;;
65581;SDS011;52231;40.090;18.348;2022-12-07T05:02:11;16.58;;;5.80;;
65581;SDS011;52231;40.090;18.348;2022-12-07T05:04:40;14.35;;;6.20;;
65581;SDS011;52231;40.090;18.348;2022-12-07T05:07:08;15.90;;;6.00;;
65581;SDS011;52231;40.090;18.348;2022-12-07T05:09:36;11.65;;;5.55;;
65581;SDS011;52231;40.090;18.348;2022-12-07T05:12:04;13.75;;;5.97;;
65581;SDS011;52231;40.090;18.348;2022-12-07T05:14:32;11.93;;;4.57;;
65581;SDS011;52231;40.090;18.348;2022-12-07T05:17:01;12.90;;;5.72;;
65581;SDS011;52231;40.090;18.348;2022-12-07T05:19:29;9.90;;;4.75;;
65581;SDS011;52231;40.090;18.348;2022-12-07T05:21:57;14.00;;;5.72;;
65581;SDS011;52231;40.090;18.348;2022-12-07T05:24:25;12.43;;;5.10;;
65581;SDS011;52231;40.090;18.348;2022-12-07T05:26:53;36.65;;;13.65;;
65581;SDS011;52231;40.090;18.348;2022-12-07T05:29:21;24.38;;;10.30;;
65581;SDS011;52231;40.090;18.348;2022-12-07T05:31:49;18.10;;;7.93;;
65581;SDS011;52231;40.090;18.348;2022-12-07T05:34:17;20.38;;;7.45;;
65581;SDS011;52231;40.090;18.348;2022-12-07T05:36:45;15.35;;;6.22;;
65581;SDS011;52231;40.090;18.348;2022-12-07T05:39:13;14.57;;;6.03;;
65581;SDS011;52231;40.090;18.348;2022-12-07T05:41:41;13.32;;;6.10;;
65581;SDS011;52231;40.090;18.348;2022-12-07T05:44:28;14.60;;;6.15;;
65581;SDS011;52231;40.090;18.348;2022-12-07T05:46:56;17.98;;;7.10;;
65581;SDS011;52231;40.090;18.348;2022-12-07T05:49:24;16.88;;;7.18;;
65581;SDS011;52231;40.090;18.348;2022-12-07T05:51:52;20.75;;;7.95;;
65581;SDS011;52231;40.090;18.348;2022-12-07T05:54:20;14.73;;;7.65;;
65581;SDS011;52231;40.090;18.348;2022-12-07T05:56:49;16.25;;;7.25;;
65581;SDS011;52231;40.090;18.348;2022-12-07T05:59:17;17.92;;;6.95;;
65581;SDS011;52231;40.090;18.348;2022-12-07T06:01:55;17.77;;;6.80;;
65581;SDS011;52231;40.090;18.348;2022-12-07T06:04:30;13.38;;;5.88;;
65581;SDS011;52231;40.090;18.348;2022-12-07T06:07:04;20.15;;;6.75;;
65581;SDS011;52231;40.090;18.348;2022-12-07T06:09:51;17.20;;;6.13;;
65581;SDS011;52231;40.090;18.348;2022-12-07T06:12:20;19.63;;;7.13;;
65581;SDS011;52231;40.090;18.348;2022-12-07T06:15:24;15.50;;;6.82;;
65581;SDS011;52231;40.090;18.348;2022-12-07T06:17:52;19.60;;;7.10;;
65581;SDS011;52231;40.090;18.348;2022-12-07T06:20:20;20.17;;;8.52;;
65581;SDS011;52231;40.090;18.348;2022-12-07T06:22:48;17.90;;;7.70;;
65581;SDS011;52231;40.090;18.348;2022-12-07T06:25:17;16.67;;;7.88;;
65581;SDS011;52231;40.090;18.348;2022-12-07T06:27:45;18.35;;;7.65;;
65581;SDS011;52231;40.090;18.348;2022-12-07T06:30:13;19.90;;;7.38;;
65581;SDS011;52231;40.090;18.348;2022-12-07T06:32:41;18.05;;;8.27;;
65581;SDS011;52231;40.090;18.348;2022-12-07T06:35:10;23.58;;;11.25;;
65581;SDS011;52231;40.090;18.348;2022-12-07T06:37:38;16.73;;;8.13;;
65581;SDS011;52231;40.090;18.348;2022-12-07T06:40:06;19.58;;;8.93;;
65581;SDS011;52231;40.090;18.348;2022-12-07T06:45:03;18.52;;;8.32;;
65581;SDS011;52231;40.090;18.348;2022-12-07T06:47:31;36.95;;;11.02;;
65581;SDS011;52231;40.090;18.348;2022-12-07T06:50:07;26.60;;;12.38;;
65581;SDS011;52231;40.090;18.348;2022-12-07T06:52:35;25.38;;;9.98;;
65581;SDS011;52231;40.090;18.348;2022-12-07T06:55:03;20.73;;;8.95;;
65581;SDS011;52231;40.090;18.348;2022-12-07T07:00:00;21.45;;;10.55;;
65581;SDS011;52231;40.090;18.348;2022-12-07T07:02:29;19.40;;;9.75;;
65581;SDS011;52231;40.090;18.348;2022-12-07T07:04:58;15.07;;;7.68;;
65581;SDS011;52231;40.090;18.348;2022-12-07T07:07:26;17.95;;;7.03;;
65581;SDS011;52231;40.090;18.348;2022-12-07T07:09:54;19.35;;;7.20;;
65581;SDS011;52231;40.090;18.348;2022-12-07T07:12:22;17.33;;;5.85;;
65581;SDS011;52231;40.090;18.348;2022-12-07T07:14:50;23.73;;;7.35;;
65581;SDS011;52231;40.090;18.348;2022-12-07T07:17:19;18.58;;;8.85;;
65581;SDS011;52231;40.090;18.348;2022-12-07T07:19:47;25.75;;;8.40;;
65581;SDS011;52231;40.090;18.348;2022-12-07T07:22:16;23.08;;;7.28;;
65581;SDS011;52231;40.090;18.348;2022-12-07T07:24:44;16.55;;;5.78;;
65581;SDS011;52231;40.090;18.348;2022-12-07T07:29:40;16.90;;;6.43;;
65581;SDS011;52231;40.090;18.348;2022-12-07T07:32:09;14.65;;;5.90;;
65581;SDS011;52231;40.090;18.348;2022-12-07T07:34:37;14.18;;;5.00;;
65581;SDS011;52231;40.090;18.348;2022-12-07T07:37:05;16.13;;;4.57;;
65581;SDS011;52231;40.090;18.348;2022-12-07T07:39:33;13.55;;;4.40;;
65581;SDS011;52231;40.090;18.348;2022-12-07T07:42:01;13.75;;;4.50;;
65581;SDS011;52231;40.090;18.348;2022-12-07T07:44:32;12.60;;;4.05;;
65581;SDS011;52231;40.090;18.348;2022-12-07T07:47:02;15.95;;;4.93;;
65581;SDS011;52231;40.090;18.348;2022-12-07T07:49:30;17.30;;;3.55;;
65581;SDS011;52231;40.090;18.348;2022-12-07T07:51:58;14.75;;;3.47;;
65581;SDS011;52231;40.090;18.348;2022-12-07T07:54:26;15.48;;;3.40;;
65581;SDS011;52231;40.090;18.348;2022-12-07T07:56:55;15.30;;;3.53;;
65581;SDS011;52231;40.090;18.348;2022-12-07T07:59:23;15.23;;;3.20;;
65581;SDS011;52231;40.090;18.348;2022-12-07T08:01:52;17.67;;;3.40;;
65581;SDS011;52231;40.090;18.348;2022-12-07T08:04:20;14.45;;;2.90;;
65581;SDS011;52231;40.090;18.348;2022-12-07T08:06:48;14.98;;;2.95;;
65581;SDS011;52231;40.090;18.348;2022-12-07T08:09:17;15.82;;;3.20;;
65581;SDS011;52231;40.090;18.348;2022-12-07T08:11:45;15.32;;;3.20;;
65581;SDS011;52231;40.090;18.348;2022-12-07T08:14:13;13.55;;;2.97;;
65581;SDS011;52231;40.090;18.348;2022-12-07T08:16:41;9.43;;;2.33;;
65581;SDS011;52231;40.090;18.348;2022-12-07T08:19:09;11.60;;;2.15;;
65581;SDS011;52231;40.090;18.348;2022-12-07T08:21:37;14.85;;;2.58;;
65581;SDS011;52231;40.090;18.348;2022-12-07T08:24:06;11.32;;;2.50;;
65581;SDS011;52231;40.090;18.348;2022-12-07T08:26:34;14.10;;;3.40;;
65581;SDS011;52231;40.090;18.348;2022-12-07T08:29:02;17.80;;;2.38;;
65581;SDS011;52231;40.090;18.348;2022-12-07T08:31:30;17.23;;;3.15;;
65581;SDS011;52231;40.090;18.348;2022-12-07T08:33:59;15.45;;;2.97;;
65581;SDS011;52231;40.090;18.348;2022-12-07T08:36:27;17.95;;;2.70;;
65581;SDS011;52231;40.090;18.348;2022-12-07T08:38:56;12.82;;;2.00;;
65581;SDS011;52231;40.090;18.348;2022-12-07T08:41:44;17.40;;;2.45;;
65581;SDS011;52231;40.090;18.348;2022-12-07T08:44:12;13.63;;;2.50;;
65581;SDS011;52231;40.090;18.348;2022-12-07T08:46:41;12.23;;;2.63;;
65581;SDS011;52231;40.090;18.348;2022-12-07T08:49:20;12.45;;;2.35;;
65581;SDS011;52231;40.090;18.348;2022-12-07T08:51:54;14.02;;;2.40;;
65581;SDS011;52231;40.090;18.348;2022-12-07T08:54:23;15.23;;;2.22;;
65581;SDS011;52231;40.090;18.348;2022-12-07T08:56:51;19.02;;;2.80;;
65581;SDS011;52231;40.090;18.348;2022-12-07T08:59:43;11.70;;;2.35;;
65581;SDS011;52231;40.090;18.348;2022-12-07T09:02:11;13.93;;;2.08;;
65581;SDS011;52231;40.090;18.348;2022-12-07T09:04:39;12.43;;;2.10;;
65581;SDS011;52231;40.090;18.348;2022-12-07T09:07:07;14.77;;;2.38;;
65581;SDS011;52231;40.090;18.348;2022-12-07T09:09:36;17.10;;;2.30;;
65581;SDS011;52231;40.090;18.348;2022-12-07T09:12:04;17.20;;;2.72;;
65581;SDS011;52231;40.090;18.348;2022-12-07T09:14:32;16.80;;;2.78;;
65581;SDS011;52231;40.090;18.348;2022-12-07T09:17:10;12.55;;;2.42;;
65581;SDS011;52231;40.090;18.348;2022-12-07T09:19:39;11.82;;;3.03;;
65581;SDS011;52231;40.090;18.348;2022-12-07T09:22:09;13.07;;;2.50;;
65581;SDS011;52231;40.090;18.348;2022-12-07T09:24:38;16.60;;;3.28;;
65581;SDS011;52231;40.090;18.348;2022-12-07T09:27:06;12.10;;;2.00;;
65581;SDS011;52231;40.090;18.348;2022-12-07T09:32:03;14.13;;;2.45;;
65581;SDS011;52231;40.090;18.348;2022-12-07T09:34:34;13.23;;;2.22;;
65581;SDS011;52231;40.090;18.348;2022-12-07T09:37:02;14.13;;;2.60;;
65581;SDS011;52231;40.090;18.348;2022-12-07T09:39:30;22.90;;;7.57;;
65581;SDS011;52231;40.090;18.348;2022-12-07T09:41:59;14.85;;;2.33;;
65581;SDS011;52231;40.090;18.348;2022-12-07T09:44:30;15.43;;;2.70;;
65581;SDS011;52231;40.090;18.348;2022-12-07T09:49:30;12.95;;;2.42;;
65581;SDS011;52231;40.090;18.348;2022-12-07T09:52:03;17.92;;;2.50;;
65581;SDS011;52231;40.090;18.348;2022-12-07T09:54:48;11.15;;;2.33;;
65581;SDS011;52231;40.090;18.348;2022-12-07T09:57:27;12.02;;;2.50;;
65581;SDS011;52231;40.090;18.348;2022-12-07T09:59:59;11.25;;;3.10;;
65581;SDS011;52231;40.090;18.348;2022-12-07T10:02:41;9.90;;;2.20;;
65581;SDS011;52231;40.090;18.348;2022-12-07T10:05:36;12.73;;;2.45;;
65581;SDS011;52231;40.090;18.348;2022-12-07T10:08:12;13.38;;;2.63;;
65581;SDS011;52231;40.090;18.348;2022-12-07T10:10:43;14.07;;;2.72;;
65581;SDS011;52231;40.090;18.348;2022-12-07T10:13:14;11.43;;;2.55;;
65581;SDS011;52231;40.090;18.348;2022-12-07T10:15:56;11.02;;;2.58;;
65581;SDS011;52231;40.090;18.348;2022-12-07T10:21:08;8.13;;;1.95;;
65581;SDS011;52231;40.090;18.348;2022-12-07T10:24:01;7.95;;;2.10;;
65581;SDS011;52231;40.090;18.348;2022-12-07T10:34:42;15.52;;;2.95;;
65581;SDS011;52231;40.090;18.348;2022-12-07T10:37:32;12.35;;;2.40;;
65581;SDS011;52231;40.090;18.348;2022-12-07T10:40:23;9.73;;;2.20;;
65581;SDS011;52231;40.090;18.348;2022-12-07T10:46:05;11.15;;;2.17;;
65581;SDS011;52231;40.090;18.348;2022-12-07T10:51:38;11.30;;;2.95;;
65581;SDS011;52231;40.090;18.348;2022-12-07T10:57:29;14.90;;;2.70;;
65581;SDS011;52231;40.090;18.348;2022-12-07T11:00:18;17.27;;;3.85;;
65581;SDS011;52231;40.090;18.348;2022-12-07T11:14:03;16.50;;;3.10;;
65581;SDS011;52231;40.090;18.348;2022-12-07T11:19:42;17.33;;;3.05;;
65581;SDS011;52231;40.090;18.348;2022-12-07T11:22:36;18.60;;;3.13;;
65581;SDS011;52231;40.090;18.348;2022-12-07T11:33:57;17.63;;;3.42;;
65581;SDS011;52231;40.090;18.348;2022-12-07T11:36:44;16.42;;;2.63;;
65581;SDS011;52231;40.090;18.348;2022-12-07T11:41:50;16.10;;;3.53;;
65581;SDS011;52231;40.090;18.348;2022-12-07T11:47:30;19.30;;;3.15;;
65581;SDS011;52231;40.090;18.348;2022-12-07T11:56:15;17.13;;;3.03;;
65581;SDS011;52231;40.090;18.348;2022-12-07T12:06:35;11.90;;;2.10;;
65581;SDS011;52231;40.090;18.348;2022-12-07T12:12:17;14.50;;;3.00;;
65581;SDS011;52231;40.090;18.348;2022-12-07T12:18:16;17.63;;;3.47;;
65581;SDS011;52231;40.090;18.348;2022-12-07T12:21:07;11.77;;;2.28;;
65581;SDS011;52231;40.090;18.348;2022-12-07T12:26:06;19.58;;;2.42;;
65581;SDS011;52231;40.090;18.348;2022-12-07T12:28:41;13.77;;;2.80;;
65581;SDS011;52231;40.090;18.348;2022-12-07T12:31:38;18.10;;;2.90;;
65581;SDS011;52231;40.090;18.348;2022-12-07T12:37:38;17.92;;;2.97;;
65581;SDS011;52231;40.090;18.348;2022-12-07T12:42:45;15.68;;;3.80;;
65581;SDS011;52231;40.090;18.348;2022-12-07T12:45:22;13.48;;;3.83;;
65581;SDS011;52231;40.090;18.348;2022-12-07T12:48:27;13.00;;;2.35;;
65581;SDS011;52231;40.090;18.348;2022-12-07T12:51:35;17.30;;;5.03;;
65581;SDS011;52231;40.090;18.348;2022-12-07T12:54:10;13.10;;;2.53;;
65581;SDS011;52231;40.090;18.348;2022-12-07T12:56:47;13.35;;;2.60;;
65581;SDS011;52231;40.090;18.348;2022-12-07T13:12:58;14.52;;;2.80;;
65581;SDS011;52231;40.090;18.348;2022-12-07T13:20:56;16.88;;;3.40;;
65581;SDS011;52231;40.090;18.348;2022-12-07T13:23:36;24.02;;;3.75;;
65581;SDS011;52231;40.090;18.348;2022-12-07T13:31:50;16.17;;;2.47;;
65581;SDS011;52231;40.090;18.348;2022-12-07T13:34:33;20.33;;;2.42;;
65581;SDS011;52231;40.090;18.348;2022-12-07T13:37:10;18.15;;;2.92;;
65581;SDS011;52231;40.090;18.348;2022-12-07T13:40:18;15.27;;;3.60;;
65581;SDS011;52231;40.090;18.348;2022-12-07T13:42:59;12.30;;;2.88;;
65581;SDS011;52231;40.090;18.348;2022-12-07T13:46:08;20.02;;;5.00;;
65581;SDS011;52231;40.090;18.348;2022-12-07T13:48:48;17.85;;;5.38;;
65581;SDS011;52231;40.090;18.348;2022-12-07T13:54:21;13.05;;;3.13;;
65581;SDS011;52231;40.090;18.348;2022-12-07T13:57:04;14.55;;;3.08;;
65581;SDS011;52231;40.090;18.348;2022-12-07T13:59:39;17.05;;;3.80;;
65581;SDS011;52231;40.090;18.348;2022-12-07T14:04:49;14.65;;;3.10;;
65581;SDS011;52231;40.090;18.348;2022-12-07T14:16:36;15.63;;;2.92;;
65581;SDS011;52231;40.090;18.348;2022-12-07T14:22:59;16.02;;;2.83;;
65581;SDS011;52231;40.090;18.348;2022-12-07T14:25:50;10.48;;;2.55;;
65581;SDS011;52231;40.090;18.348;2022-12-07T14:28:36;15.50;;;3.20;;
65581;SDS011;52231;40.090;18.348;2022-12-07T14:31:12;13.13;;;3.15;;
65581;SDS011;52231;40.090;18.348;2022-12-07T14:33:58;16.25;;;4.07;;
65581;SDS011;52231;40.090;18.348;2022-12-07T14:36:28;18.38;;;5.43;;
65581;SDS011;52231;40.090;18.348;2022-12-07T14:39:11;17.42;;;4.45;;
65581;SDS011;52231;40.090;18.348;2022-12-07T14:41:40;15.40;;;3.63;;
65581;SDS011;52231;40.090;18.348;2022-12-07T14:44:39;17.38;;;4.10;;
65581;SDS011;52231;40.090;18.348;2022-12-07T14:47:11;17.73;;;5.65;;
65581;SDS011;52231;40.090;18.348;2022-12-07T14:49:59;19.02;;;5.78;;
65581;SDS011;52231;40.090;18.348;2022-12-07T14:52:28;21.73;;;5.22;;
65581;SDS011;52231;40.090;18.348;2022-12-07T14:55:22;19.08;;;4.80;;
65581;SDS011;52231;40.090;18.348;2022-12-07T14:57:53;17.25;;;5.05;;
65581;SDS011;52231;40.090;18.348;2022-12-07T15:02:50;16.08;;;5.22;;
65581;SDS011;52231;40.090;18.348;2022-12-07T15:05:19;17.35;;;5.43;;
65581;SDS011;52231;40.090;18.348;2022-12-07T15:07:49;18.27;;;5.18;;
65581;SDS011;52231;40.090;18.348;2022-12-07T15:10:22;16.42;;;4.80;;
65581;SDS011;52231;40.090;18.348;2022-12-07T15:12:58;17.88;;;5.47;;
65581;SDS011;52231;40.090;18.348;2022-12-07T15:15:47;33.38;;;13.73;;
65581;SDS011;52231;40.090;18.348;2022-12-07T15:18:35;36.70;;;15.70;;
65581;SDS011;52231;40.090;18.348;2022-12-07T15:21:03;25.02;;;9.60;;
65581;SDS011;52231;40.090;18.348;2022-12-07T15:23:31;27.65;;;11.05;;
65581;SDS011;52231;40.090;18.348;2022-12-07T15:25:59;20.65;;;9.00;;
65581;SDS011;52231;40.090;18.348;2022-12-07T15:28:27;25.48;;;12.50;;
65581;SDS011;52231;40.090;18.348;2022-12-07T15:30:56;27.52;;;14.65;;
65581;SDS011;52231;40.090;18.348;2022-12-07T15:33:24;30.83;;;16.63;;
65581;SDS011;52231;40.090;18.348;2022-12-07T15:35:52;32.80;;;17.48;;
65581;SDS011;52231;40.090;18.348;2022-12-07T15:38:20;31.38;;;16.27;;
65581;SDS011;52231;40.090;18.348;2022-12-07T15:40:54;26.20;;;10.20;;
65581;SDS011;52231;40.090;18.348;2022-12-07T15:43:23;23.73;;;9.55;;
65581;SDS011;52231;40.090;18.348;2022-12-07T15:46:09;29.40;;;11.27;;
65581;SDS011;52231;40.090;18.348;2022-12-07T15:51:06;14.90;;;5.03;;
65581;SDS011;52231;40.090;18.348;2022-12-07T15:53:54;16.42;;;4.82;;
65581;SDS011;52231;40.090;18.348;2022-12-07T15:56:25;18.25;;;5.05;;
65581;SDS011;52231;40.090;18.348;2022-12-07T15:58:58;18.02;;;5.72;;
65581;SDS011;52231;40.090;18.348;2022-12-07T16:01:26;17.15;;;4.97;;
65581;SDS011;52231;40.090;18.348;2022-12-07T16:03:56;22.98;;;6.10;;
65581;SDS011;52231;40.090;18.348;2022-12-07T16:06:29;25.52;;;10.65;;
65581;SDS011;52231;40.090;18.348;2022-12-07T16:08:59;19.20;;;8.98;;
65581;SDS011;52231;40.090;18.348;2022-12-07T16:11:51;30.98;;;15.32;;
65581;SDS011;52231;40.090;18.348;2022-12-07T16:14:20;36.60;;;20.95;;
65581;SDS011;52231;40.090;18.348;2022-12-07T16:16:56;40.63;;;23.35;;
65581;SDS011;52231;40.090;18.348;2022-12-07T16:21:53;21.80;;;7.95;;
65581;SDS011;52231;40.090;18.348;2022-12-07T16:24:25;29.45;;;12.50;;
65581;SDS011;52231;40.090;18.348;2022-12-07T16:26:55;29.00;;;15.98;;
65581;SDS011;52231;40.090;18.348;2022-12-07T16:29:24;39.90;;;17.35;;
65581;SDS011;52231;40.090;18.348;2022-12-07T16:31:52;44.65;;;20.88;;
65581;SDS011;52231;40.090;18.348;2022-12-07T16:34:20;45.05;;;22.20;;
65581;SDS011;52231;40.090;18.348;2022-12-07T16:36:49;33.22;;;15.43;;
65581;SDS011;52231;40.090;18.348;2022-12-07T16:39:32;20.25;;;8.68;;
65581;SDS011;52231;40.090;18.348;2022-12-07T16:42:02;20.30;;;7.95;;
65581;SDS011;52231;40.090;18.348;2022-12-07T16:46:59;17.15;;;6.32;;
65581;SDS011;52231;40.090;18.348;2022-12-07T16:49:28;20.50;;;5.63;;
65581;SDS011;52231;40.090;18.348;2022-12-07T16:51:56;16.02;;;5.53;;
65581;SDS011;52231;40.090;18.348;2022-12-07T16:54:48;12.25;;;4.22;;
65581;SDS011;52231;40.090;18.348;2022-12-07T16:57:19;13.93;;;5.22;;
65581;SDS011;52231;40.090;18.348;2022-12-07T16:59:50;15.55;;;5.47;;
65581;SDS011;52231;40.090;18.348;2022-12-07T17:02:22;15.07;;;4.80;;
65581;SDS011;52231;40.090;18.348;2022-12-07T17:04:50;11.55;;;4.05;;
65581;SDS011;52231;40.090;18.348;2022-12-07T17:09:47;15.88;;;5.22;;
65581;SDS011;52231;40.090;18.348;2022-12-07T17:12:15;13.18;;;5.60;;
65581;SDS011;52231;40.090;18.348;2022-12-07T17:14:45;15.40;;;5.55;;
65581;SDS011;52231;40.090;18.348;2022-12-07T17:17:32;11.23;;;4.38;;
65581;SDS011;52231;40.090;18.348;2022-12-07T17:20:01;12.93;;;5.05;;
65581;SDS011;52231;40.090;18.348;2022-12-07T17:22:31;15.48;;;4.63;;
65581;SDS011;52231;40.090;18.348;2022-12-07T17:27:28;15.55;;;5.20;;
65581;SDS011;52231;40.090;18.348;2022-12-07T17:29:57;19.40;;;6.63;;
65581;SDS011;52231;40.090;18.348;2022-12-07T17:34:54;25.83;;;9.27;;
65581;SDS011;52231;40.090;18.348;2022-12-07T17:39:54;20.52;;;8.27;;
65581;SDS011;52231;40.090;18.348;2022-12-07T17:42:25;18.17;;;7.18;;
65581;SDS011;52231;40.090;18.348;2022-12-07T17:45:13;23.88;;;7.38;;
65581;SDS011;52231;40.090;18.348;2022-12-07T17:47:41;15.50;;;6.22;;
65581;SDS011;52231;40.090;18.348;2022-12-07T17:50:09;19.52;;;7.20;;
65581;SDS011;52231;40.090;18.348;2022-12-07T17:52:43;21.02;;;9.05;;
65581;SDS011;52231;40.090;18.348;2022-12-07T17:55:29;16.17;;;8.45;;
65581;SDS011;52231;40.090;18.348;2022-12-07T17:58:05;17.98;;;8.40;;
65581;SDS011;52231;40.090;18.348;2022-12-07T18:00:33;23.25;;;8.10;;
65581;SDS011;52231;40.090;18.348;2022-12-07T18:03:06;30.48;;;11.70;;
65581;SDS011;52231;40.090;18.348;2022-12-07T18:05:56;17.33;;;8.60;;